sensor_id;sensor_type;location;lat;lon;timestamp;pressure;altitude;pressure_sealevel;temperature;humidity
69749;BME280;57019;52.354;6.584;2022-10-26T00:00:40;101504.59;;;20.68;54.30
69749;BME280;57019;52.354;6.584;2022-10-26T00:03:06;101501.25;;;20.66;54.30
69749;BME280;57019;52.354;6.584;2022-10-26T00:05:32;101501.25;;;20.66;54.42
69749;BME280;57019;52.354;6.584;2022-10-26T00:07:58;101500.44;;;20.65;54.54
69749;BME280;57019;52.354;6.584;2022-10-26T00:10:24;101498.81;;;20.64;54.59
69749;BME280;57019;52.354;6.584;2022-10-26T00:12:49;101491.91;;;20.63;54.30
69749;BME280;57019;52.354;6.584;2022-10-26T00:15:16;101481.59;;;20.62;54.55
69749;BME280;57019;52.354;6.584;2022-10-26T00:17:41;101487.00;;;20.60;54.26
69749;BME280;57019;52.354;6.584;2022-10-26T00:20:07;101475.72;;;20.60;54.13
69749;BME280;57019;52.354;6.584;2022-10-26T00:22:32;101489.81;;;20.59;53.98
69749;BME280;57019;52.354;6.584;2022-10-26T00:24:57;101482.91;;;20.58;54.17
69749;BME280;57019;52.354;6.584;2022-10-26T00:27:23;101482.91;;;20.58;54.09
69749;BME280;57019;52.354;6.584;2022-10-26T00:29:48;101481.31;;;20.57;54.21
69749;BME280;57019;52.354;6.584;2022-10-26T00:32:13;101482.28;;;20.56;54.14
69749;BME280;57019;52.354;6.584;2022-10-26T00:34:39;101482.47;;;20.54;53.83
69749;BME280;57019;52.354;6.584;2022-10-26T00:37:04;101473.75;;;20.54;53.86
69749;BME280;57019;52.354;6.584;2022-10-26T00:39:30;101478.38;;;20.51;53.90
69749;BME280;57019;52.354;6.584;2022-10-26T00:41:55;101478.38;;;20.51;54.09
69749;BME280;57019;52.354;6.584;2022-10-26T00:47:39;101470.66;;;20.50;53.49
69749;BME280;57019;52.354;6.584;2022-10-26T00:50:09;101484.59;;;20.50;53.79
69749;BME280;57019;52.354;6.584;2022-10-26T00:52:36;101478.72;;;20.48;53.60
69749;BME280;57019;52.354;6.584;2022-10-26T00:55:03;101473.59;;;20.47;53.63
69749;BME280;57019;52.354;6.584;2022-10-26T00:57:29;101471.81;;;20.47;53.75
69749;BME280;57019;52.354;6.584;2022-10-26T00:59:56;101470.16;;;20.46;53.52
69749;BME280;57019;52.354;6.584;2022-10-26T01:02:23;101475.41;;;20.46;53.52
69749;BME280;57019;52.354;6.584;2022-10-26T01:04:49;101473.78;;;20.45;53.53
69749;BME280;57019;52.354;6.584;2022-10-26T01:07:15;101470.53;;;20.43;53.59
69749;BME280;57019;52.354;6.584;2022-10-26T01:09:40;101471.31;;;20.44;53.38
69749;BME280;57019;52.354;6.584;2022-10-26T01:12:06;101459.19;;;20.43;53.20
69749;BME280;57019;52.354;6.584;2022-10-26T01:14:32;101456.75;;;20.41;53.26
69749;BME280;57019;52.354;6.584;2022-10-26T01:17:32;101449.88;;;20.40;53.45
69749;BME280;57019;52.354;6.584;2022-10-26T01:25:50;101451.84;;;20.38;53.26
69749;BME280;57019;52.354;6.584;2022-10-26T01:32:06;101444.13;;;20.37;53.32
69749;BME280;57019;52.354;6.584;2022-10-26T01:34:36;101432.19;;;20.34;53.20
69749;BME280;57019;52.354;6.584;2022-10-26T01:37:09;101432.19;;;20.34;53.14
69749;BME280;57019;52.354;6.584;2022-10-26T01:39:39;101425.13;;;20.34;52.90
69749;BME280;57019;52.354;6.584;2022-10-26T01:42:07;101429.56;;;20.34;52.92
69749;BME280;57019;52.354;6.584;2022-10-26T01:44:41;101425.28;;;20.33;53.22
69749;BME280;57019;52.354;6.584;2022-10-26T01:47:13;101421.84;;;20.32;53.19
69749;BME280;57019;52.354;6.584;2022-10-26T01:49:43;101421.06;;;20.32;53.19
69749;BME280;57019;52.354;6.584;2022-10-26T01:52:11;101411.53;;;20.31;53.02
69749;BME280;57019;52.354;6.584;2022-10-26T01:54:36;101407.28;;;20.30;53.10
69749;BME280;57019;52.354;6.584;2022-10-26T01:57:04;101415.16;;;20.30;52.99
69749;BME280;57019;52.354;6.584;2022-10-26T02:13:59;101394.69;;;20.25;53.19
69749;BME280;57019;52.354;6.584;2022-10-26T02:16:50;101393.84;;;20.25;53.14
69749;BME280;57019;52.354;6.584;2022-10-26T02:22:11;101385.34;;;20.23;53.01
69749;BME280;57019;52.354;6.584;2022-10-26T02:24:38;101384.50;;;20.22;53.01
69749;BME280;57019;52.354;6.584;2022-10-26T02:27:07;101382.91;;;20.21;53.10
69749;BME280;57019;52.354;6.584;2022-10-26T02:29:36;101383.69;;;20.22;53.21
69749;BME280;57019;52.354;6.584;2022-10-26T02:32:04;101377.81;;;20.20;52.95
69749;BME280;57019;52.354;6.584;2022-10-26T02:34:31;101382.22;;;20.19;52.85
69749;BME280;57019;52.354;6.584;2022-10-26T02:36:59;101380.59;;;20.18;53.22
69749;BME280;57019;52.354;6.584;2022-10-26T02:39:28;101371.91;;;20.17;53.22
69749;BME280;57019;52.354;6.584;2022-10-26T02:41:57;101373.56;;;20.19;52.98
69749;BME280;57019;52.354;6.584;2022-10-26T02:44:26;101364.22;;;20.16;53.14
69749;BME280;57019;52.354;6.584;2022-10-26T02:46:54;101365.03;;;20.16;53.26
69749;BME280;57019;52.354;6.584;2022-10-26T02:49:20;101362.41;;;20.16;52.87
69749;BME280;57019;52.354;6.584;2022-10-26T02:51:52;101360.78;;;20.15;53.15
69749;BME280;57019;52.354;6.584;2022-10-26T02:57:08;101365.38;;;20.13;52.95
69749;BME280;57019;52.354;6.584;2022-10-26T02:59:37;101361.94;;;20.13;53.06
69749;BME280;57019;52.354;6.584;2022-10-26T03:02:05;101353.25;;;20.12;53.30
69749;BME280;57019;52.354;6.584;2022-10-26T03:04:31;101355.88;;;20.12;53.13
69749;BME280;57019;52.354;6.584;2022-10-26T03:06:57;101350.78;;;20.11;53.29
69749;BME280;57019;52.354;6.584;2022-10-26T03:09:23;101346.53;;;20.10;53.16
69749;BME280;57019;52.354;6.584;2022-10-26T03:11:48;101360.47;;;20.10;53.25
69749;BME280;57019;52.354;6.584;2022-10-26T03:14:14;101369.31;;;20.09;52.89
69749;BME280;57019;52.354;6.584;2022-10-26T03:16:40;101367.69;;;20.08;52.94
69749;BME280;57019;52.354;6.584;2022-10-26T03:19:05;101378.16;;;20.08;53.27
69749;BME280;57019;52.354;6.584;2022-10-26T03:21:30;101371.31;;;20.07;52.84
69749;BME280;57019;52.354;6.584;2022-10-26T03:23:56;101369.66;;;20.06;52.91
69749;BME280;57019;52.354;6.584;2022-10-26T03:26:21;101369.66;;;20.06;53.09
69749;BME280;57019;52.354;6.584;2022-10-26T03:28:46;101369.66;;;20.06;53.13
69749;BME280;57019;52.354;6.584;2022-10-26T03:31:12;101368.03;;;20.05;53.14
69749;BME280;57019;52.354;6.584;2022-10-26T03:33:37;101370.66;;;20.05;52.90
69749;BME280;57019;52.354;6.584;2022-10-26T03:36:03;101370.66;;;20.05;52.93
69749;BME280;57019;52.354;6.584;2022-10-26T03:38:28;101369.00;;;20.04;53.17
69749;BME280;57019;52.354;6.584;2022-10-26T03:40:53;101362.16;;;20.03;53.22
69749;BME280;57019;52.354;6.584;2022-10-26T03:43:19;101352.63;;;20.02;53.09
69749;BME280;57019;52.354;6.584;2022-10-26T03:45:44;101352.63;;;20.02;53.04
69749;BME280;57019;52.354;6.584;2022-10-26T03:48:09;101352.63;;;20.02;53.15
69749;BME280;57019;52.354;6.584;2022-10-26T03:50:35;101349.34;;;20.00;53.08
69749;BME280;57019;52.354;6.584;2022-10-26T03:53:00;101344.94;;;20.00;53.08
69749;BME280;57019;52.354;6.584;2022-10-26T03:55:25;101349.34;;;20.00;53.00
69749;BME280;57019;52.354;6.584;2022-10-26T03:57:51;101342.50;;;19.99;53.32
69749;BME280;57019;52.354;6.584;2022-10-26T04:00:16;101337.25;;;19.99;53.28
69749;BME280;57019;52.354;6.584;2022-10-26T04:02:44;101336.41;;;19.98;53.24
69749;BME280;57019;52.354;6.584;2022-10-26T04:05:13;101337.56;;;19.96;53.11
69749;BME280;57019;52.354;6.584;2022-10-26T04:07:39;101334.78;;;19.97;53.23
69749;BME280;57019;52.354;6.584;2022-10-26T04:10:05;101327.09;;;19.96;53.15
69749;BME280;57019;52.354;6.584;2022-10-26T04:12:30;101327.09;;;19.96;53.28
69749;BME280;57019;52.354;6.584;2022-10-26T04:14:55;101327.09;;;19.96;53.10
69749;BME280;57019;52.354;6.584;2022-10-26T04:17:23;101323.81;;;19.94;53.13
69749;BME280;57019;52.354;6.584;2022-10-26T04:19:49;101335.13;;;19.94;53.26
69749;BME280;57019;52.354;6.584;2022-10-26T04:22:14;101323.81;;;19.94;53.31
69749;BME280;57019;52.354;6.584;2022-10-26T04:24:40;101330.06;;;19.93;53.28
69749;BME280;57019;52.354;6.584;2022-10-26T04:27:05;101330.22;;;19.91;53.23
69749;BME280;57019;52.354;6.584;2022-10-26T04:29:30;101335.47;;;19.91;53.31
69749;BME280;57019;52.354;6.584;2022-10-26T04:31:55;101335.47;;;19.91;53.01
69749;BME280;57019;52.354;6.584;2022-10-26T04:34:21;101331.88;;;19.92;53.22
69749;BME280;57019;52.354;6.584;2022-10-26T04:36:46;101330.06;;;19.93;53.16
69749;BME280;57019;52.354;6.584;2022-10-26T04:39:11;101334.16;;;19.87;53.34
69749;BME280;57019;52.354;6.584;2022-10-26T04:41:37;101324.81;;;19.93;53.21
69749;BME280;57019;52.354;6.584;2022-10-26T04:44:02;101331.81;;;20.09;53.05
69749;BME280;57019;52.354;6.584;2022-10-26T04:46:27;101337.00;;;20.25;52.75
69749;BME280;57019;52.354;6.584;2022-10-26T04:48:53;101341.16;;;20.43;52.40
69749;BME280;57019;52.354;6.584;2022-10-26T04:51:18;101334.66;;;20.62;51.97
69749;BME280;57019;52.354;6.584;2022-10-26T04:53:44;101345.75;;;20.80;51.66
69749;BME280;57019;52.354;6.584;2022-10-26T04:56:09;101343.38;;;20.94;51.43
69749;BME280;57019;52.354;6.584;2022-10-26T04:58:34;101349.19;;;21.04;51.70
69749;BME280;57019;52.354;6.584;2022-10-26T05:01:00;101344.59;;;21.06;51.60
69749;BME280;57019;52.354;6.584;2022-10-26T05:03:26;101349.38;;;21.02;51.53
69749;BME280;57019;52.354;6.584;2022-10-26T05:05:51;101348.09;;;20.98;51.71
69749;BME280;57019;52.354;6.584;2022-10-26T05:08:17;101348.09;;;20.98;51.98
69749;BME280;57019;52.354;6.584;2022-10-26T05:10:47;101348.91;;;20.99;52.30
69749;BME280;57019;52.354;6.584;2022-10-26T05:13:12;101349.56;;;21.01;52.55
69749;BME280;57019;52.354;6.584;2022-10-26T05:15:37;101341.38;;;20.96;52.44
69749;BME280;57019;52.354;6.584;2022-10-26T05:18:04;101342.72;;;20.92;52.80
69749;BME280;57019;52.354;6.584;2022-10-26T05:20:31;101344.38;;;20.93;52.37
69749;BME280;57019;52.354;6.584;2022-10-26T05:23:02;101342.41;;;20.87;52.60
69749;BME280;57019;52.354;6.584;2022-10-26T05:25:44;101339.78;;;20.87;52.42
69749;BME280;57019;52.354;6.584;2022-10-26T05:28:10;101339.78;;;20.87;52.58
69749;BME280;57019;52.354;6.584;2022-10-26T05:30:38;101335.72;;;20.84;52.46
69749;BME280;57019;52.354;6.584;2022-10-26T05:33:03;101335.63;;;20.77;52.76
69749;BME280;57019;52.354;6.584;2022-10-26T05:35:30;101336.78;;;20.75;52.60
69749;BME280;57019;52.354;6.584;2022-10-26T05:37:56;101336.59;;;20.76;53.01
69749;BME280;57019;52.354;6.584;2022-10-26T05:40:22;101334.91;;;20.83;52.91
69749;BME280;57019;52.354;6.584;2022-10-26T05:42:48;101337.00;;;20.88;52.84
69749;BME280;57019;52.354;6.584;2022-10-26T05:45:15;101337.47;;;20.92;52.70
69749;BME280;57019;52.354;6.584;2022-10-26T05:47:43;101346.63;;;20.96;52.58
69749;BME280;57019;52.354;6.584;2022-10-26T05:50:09;101338.47;;;20.91;52.87
69749;BME280;57019;52.354;6.584;2022-10-26T05:52:39;101333.91;;;20.84;52.71
69749;BME280;57019;52.354;6.584;2022-10-26T05:55:06;101338.88;;;20.79;53.05
69749;BME280;57019;52.354;6.584;2022-10-26T05:57:32;101342.03;;;20.75;52.96
69749;BME280;57019;52.354;6.584;2022-10-26T05:59:58;101339.84;;;20.78;52.84
69749;BME280;57019;52.354;6.584;2022-10-26T06:02:32;101339.22;;;20.76;53.07
69749;BME280;57019;52.354;6.584;2022-10-26T06:05:04;101335.94;;;20.74;52.95
69749;BME280;57019;52.354;6.584;2022-10-26T06:07:29;101328.25;;;20.73;53.19
69749;BME280;57019;52.354;6.584;2022-10-26T06:09:55;101333.97;;;20.76;53.10
69749;BME280;57019;52.354;6.584;2022-10-26T06:12:21;101340.03;;;20.77;53.12
69749;BME280;57019;52.354;6.584;2022-10-26T06:14:47;101342.47;;;20.78;52.89
69749;BME280;57019;52.354;6.584;2022-10-26T06:23:04;101337.41;;;20.77;53.10
69749;BME280;57019;52.354;6.584;2022-10-26T06:25:49;101341.53;;;20.71;53.25
69749;BME280;57019;52.354;6.584;2022-10-26T06:30:57;101347.59;;;20.72;53.82
69749;BME280;57019;52.354;6.584;2022-10-26T06:33:23;101347.16;;;20.68;54.40
69749;BME280;57019;52.354;6.584;2022-10-26T06:38:40;101345.47;;;20.67;54.44
69749;BME280;57019;52.354;6.584;2022-10-26T06:41:10;101345.81;;;20.64;54.55
69749;BME280;57019;52.354;6.584;2022-10-26T06:43:36;101342.88;;;20.59;54.50
69749;BME280;57019;52.354;6.584;2022-10-26T06:46:13;101352.56;;;20.58;54.57
69749;BME280;57019;52.354;6.584;2022-10-26T06:49:26;101351.75;;;20.58;54.35
69749;BME280;57019;52.354;6.584;2022-10-26T06:51:57;101353.91;;;20.54;54.59
69749;BME280;57019;52.354;6.584;2022-10-26T06:57:12;101360.00;;;20.46;54.75
69749;BME280;57019;52.354;6.584;2022-10-26T07:00:03;101357.56;;;20.45;54.53
69749;BME280;57019;52.354;6.584;2022-10-26T07:02:25;101356.75;;;20.44;54.65
69749;BME280;57019;52.354;6.584;2022-10-26T07:04:50;101357.06;;;20.41;54.52
69749;BME280;57019;52.354;6.584;2022-10-26T07:07:19;101365.94;;;20.40;54.88
69749;BME280;57019;52.354;6.584;2022-10-26T07:09:45;101363.81;;;20.36;54.88
69749;BME280;57019;52.354;6.584;2022-10-26T07:12:10;101357.75;;;20.35;54.68
69749;BME280;57019;52.354;6.584;2022-10-26T07:14:36;101366.63;;;20.34;54.68
69749;BME280;57019;52.354;6.584;2022-10-26T07:17:01;101371.84;;;20.34;54.80
69749;BME280;57019;52.354;6.584;2022-10-26T07:19:27;101368.75;;;20.30;54.74
69749;BME280;57019;52.354;6.584;2022-10-26T07:21:55;101364.34;;;20.31;54.93
69749;BME280;57019;52.354;6.584;2022-10-26T07:24:22;101372.22;;;20.31;54.83
69749;BME280;57019;52.354;6.584;2022-10-26T07:26:47;101366.97;;;20.31;54.74
69749;BME280;57019;52.354;6.584;2022-10-26T07:29:13;101365.66;;;20.27;54.91
69749;BME280;57019;52.354;6.584;2022-10-26T07:31:40;101358.78;;;20.26;54.70
69749;BME280;57019;52.354;6.584;2022-10-26T07:34:06;101363.53;;;20.22;55.01
69749;BME280;57019;52.354;6.584;2022-10-26T07:36:31;101365.53;;;20.20;55.08
69749;BME280;57019;52.354;6.584;2022-10-26T07:38:56;101361.25;;;20.19;55.05
69749;BME280;57019;52.354;6.584;2022-10-26T07:41:21;101359.78;;;20.16;54.99
69749;BME280;57019;52.354;6.584;2022-10-26T07:43:47;101364.72;;;20.20;54.92
69749;BME280;57019;52.354;6.584;2022-10-26T07:46:15;101359.78;;;20.16;55.03
69749;BME280;57019;52.354;6.584;2022-10-26T07:48:41;101350.94;;;20.17;54.75
69749;BME280;57019;52.354;6.584;2022-10-26T07:51:06;101352.59;;;20.19;54.83
69749;BME280;57019;52.354;6.584;2022-10-26T07:53:31;101355.38;;;20.17;54.83
69749;BME280;57019;52.354;6.584;2022-10-26T07:55:57;101350.78;;;20.19;54.84
69749;BME280;57019;52.354;6.584;2022-10-26T07:58:22;101355.56;;;20.15;54.95
69749;BME280;57019;52.354;6.584;2022-10-26T08:00:51;101352.09;;;20.15;54.69
69749;BME280;57019;52.354;6.584;2022-10-26T08:03:17;101348.31;;;20.17;54.88
69749;BME280;57019;52.354;6.584;2022-10-26T08:05:45;101358.19;;;20.15;54.72
69749;BME280;57019;52.354;6.584;2022-10-26T08:08:11;101349.66;;;20.13;55.14
69749;BME280;57019;52.354;6.584;2022-10-26T08:10:36;101351.91;;;20.16;54.67
69749;BME280;57019;52.354;6.584;2022-10-26T08:13:01;101356.19;;;20.17;55.07
69749;BME280;57019;52.354;6.584;2022-10-26T08:15:27;101354.22;;;20.20;54.82
69749;BME280;57019;52.354;6.584;2022-10-26T08:17:52;101352.25;;;20.22;54.88
69749;BME280;57019;52.354;6.584;2022-10-26T08:20:17;101361.75;;;20.23;54.56
69749;BME280;57019;52.354;6.584;2022-10-26T08:22:43;101360.09;;;20.22;54.87
69749;BME280;57019;52.354;6.584;2022-10-26T08:25:08;101356.84;;;20.20;54.74
69749;BME280;57019;52.354;6.584;2022-10-26T08:27:33;101362.25;;;20.18;54.92
69749;BME280;57019;52.354;6.584;2022-10-26T08:29:59;101369.28;;;20.17;55.06
69749;BME280;57019;52.354;6.584;2022-10-26T08:32:24;101365.69;;;20.19;54.96
69749;BME280;57019;52.354;6.584;2022-10-26T08:34:49;101377.16;;;20.17;54.95
69749;BME280;57019;52.354;6.584;2022-10-26T08:37:15;101373.56;;;20.19;54.96
69749;BME280;57019;52.354;6.584;2022-10-26T08:39:40;101375.19;;;20.20;54.94
69749;BME280;57019;52.354;6.584;2022-10-26T08:42:37;101368.31;;;20.19;55.27
69749;BME280;57019;52.354;6.584;2022-10-26T08:45:11;101374.72;;;20.16;55.00
69749;BME280;57019;52.354;6.584;2022-10-26T08:48:22;101370.28;;;20.16;55.12
69749;BME280;57019;52.354;6.584;2022-10-26T08:50:54;101378.81;;;20.19;55.10
69749;BME280;57019;52.354;6.584;2022-10-26T08:53:28;101381.25;;;20.20;54.92
69749;BME280;57019;52.354;6.584;2022-10-26T08:56:41;101385.69;;;20.20;55.00
69749;BME280;57019;52.354;6.584;2022-10-26T09:01:57;101390.94;;;20.20;55.07
69749;BME280;57019;52.354;6.584;2022-10-26T09:04:25;101379.44;;;20.21;54.83
69749;BME280;57019;52.354;6.584;2022-10-26T09:10:06;101383.88;;;20.20;55.10
69749;BME280;57019;52.354;6.584;2022-10-26T09:15:53;101390.94;;;20.20;55.31
69749;BME280;57019;52.354;6.584;2022-10-26T09:18:43;101405.03;;;20.19;55.05
69749;BME280;57019;52.354;6.584;2022-10-26T09:21:31;101407.81;;;20.17;55.22
69749;BME280;57019;52.354;6.584;2022-10-26T09:29:56;101419.09;;;20.17;55.14
69749;BME280;57019;52.354;6.584;2022-10-26T09:32:28;101413.88;;;20.17;55.16
69749;BME280;57019;52.354;6.584;2022-10-26T09:34:58;101413.06;;;20.17;55.22
69749;BME280;57019;52.354;6.584;2022-10-26T09:37:29;101417.47;;;20.16;55.29
69749;BME280;57019;52.354;6.584;2022-10-26T09:42:57;101416.66;;;20.16;55.14
69749;BME280;57019;52.354;6.584;2022-10-26T09:45:36;101415.84;;;20.15;55.20
69749;BME280;57019;52.354;6.584;2022-10-26T09:48:11;101414.22;;;20.14;55.16
69749;BME280;57019;52.354;6.584;2022-10-26T09:50:43;101419.78;;;20.11;55.40
69749;BME280;57019;52.354;6.584;2022-10-26T09:53:09;101410.13;;;20.12;55.41
69749;BME280;57019;52.354;6.584;2022-10-26T09:55:41;101407.66;;;20.10;55.54
69749;BME280;57019;52.354;6.584;2022-10-26T09:58:16;101417.19;;;20.11;55.23
69749;BME280;57019;52.354;6.584;2022-10-26T10:00:45;101422.41;;;20.11;55.39
69749;BME280;57019;52.354;6.584;2022-10-26T10:03:37;101432.25;;;20.09;55.41
69749;BME280;57019;52.354;6.584;2022-10-26T10:06:18;101430.59;;;20.08;55.55
69749;BME280;57019;52.354;6.584;2022-10-26T10:09:04;101431.25;;;20.10;55.45
69749;BME280;57019;52.354;6.584;2022-10-26T10:14:07;101439.13;;;20.10;55.47
69749;BME280;57019;52.354;6.584;2022-10-26T10:16:33;101436.69;;;20.09;55.58
69749;BME280;57019;52.354;6.584;2022-10-26T10:18:59;101436.69;;;20.09;55.59
69749;BME280;57019;52.354;6.584;2022-10-26T10:21:36;101446.00;;;20.11;55.34
69749;BME280;57019;52.354;6.584;2022-10-26T10:24:21;101435.38;;;20.05;55.58
69749;BME280;57019;52.354;6.584;2022-10-26T10:29:33;101436.19;;;20.05;55.52
69749;BME280;57019;52.354;6.584;2022-10-26T10:32:01;101431.09;;;20.04;55.51
69749;BME280;57019;52.354;6.584;2022-10-26T10:34:30;101432.56;;;20.06;55.73
69749;BME280;57019;52.354;6.584;2022-10-26T10:36:56;101428.31;;;20.05;55.47
69749;BME280;57019;52.354;6.584;2022-10-26T10:39:40;101429.28;;;20.04;55.48
69749;BME280;57019;52.354;6.584;2022-10-26T10:42:22;101434.53;;;20.04;55.76
69749;BME280;57019;52.354;6.584;2022-10-26T10:44:52;101432.75;;;20.05;55.52
69749;BME280;57019;52.354;6.584;2022-10-26T10:47:32;101435.38;;;20.05;55.64
69749;BME280;57019;52.354;6.584;2022-10-26T10:50:10;101440.44;;;20.06;55.64
69749;BME280;57019;52.354;6.584;2022-10-26T11:01:21;101441.41;;;20.05;55.86
69749;BME280;57019;52.354;6.584;2022-10-26T11:06:52;101450.09;;;20.06;55.79
69749;BME280;57019;52.354;6.584;2022-10-26T11:09:26;101461.59;;;20.05;55.72
69749;BME280;57019;52.354;6.584;2022-10-26T11:11:55;101457.81;;;20.07;55.68
69749;BME280;57019;52.354;6.584;2022-10-26T11:14:25;101467.28;;;20.08;55.65
69749;BME280;57019;52.354;6.584;2022-10-26T11:17:05;101469.91;;;20.08;55.94
69749;BME280;57019;52.354;6.584;2022-10-26T11:19:58;101473.53;;;20.07;55.79
69749;BME280;57019;52.354;6.584;2022-10-26T11:22:34;101472.06;;;20.05;55.64
69749;BME280;57019;52.354;6.584;2022-10-26T11:27:35;101487.47;;;20.08;55.94
69749;BME280;57019;52.354;6.584;2022-10-26T11:30:05;101476.81;;;20.09;55.80
69749;BME280;57019;52.354;6.584;2022-10-26T11:32:35;101479.09;;;20.12;55.67
69749;BME280;57019;52.354;6.584;2022-10-26T11:38:07;101483.88;;;20.09;55.95
69749;BME280;57019;52.354;6.584;2022-10-26T11:40:54;101495.97;;;20.10;55.70
69749;BME280;57019;52.354;6.584;2022-10-26T11:43:29;101486.94;;;20.12;55.72
69749;BME280;57019;52.354;6.584;2022-10-26T11:46:24;101497.59;;;20.11;55.65
69749;BME280;57019;52.354;6.584;2022-10-26T11:49:09;101485.34;;;20.11;55.89
69749;BME280;57019;52.354;6.584;2022-10-26T11:54:37;101501.06;;;20.11;55.94
69749;BME280;57019;52.354;6.584;2022-10-26T11:57:05;101499.91;;;20.14;55.82
69749;BME280;57019;52.354;6.584;2022-10-26T11:59:35;101506.13;;;20.13;55.95
69749;BME280;57019;52.354;6.584;2022-10-26T12:02:22;101505.00;;;20.15;55.70
69749;BME280;57019;52.354;6.584;2022-10-26T12:04:53;101513.34;;;20.11;56.11
69749;BME280;57019;52.354;6.584;2022-10-26T12:07:25;101524.97;;;20.08;55.92
69749;BME280;57019;52.354;6.584;2022-10-26T12:09:51;101524.66;;;20.11;55.85
69749;BME280;57019;52.354;6.584;2022-10-26T12:12:44;101517.78;;;20.10;55.94
69749;BME280;57019;52.354;6.584;2022-10-26T12:15:29;101532.53;;;20.11;56.00
69749;BME280;57019;52.354;6.584;2022-10-26T12:18:11;101528.25;;;20.10;56.07
69749;BME280;57019;52.354;6.584;2022-10-26T12:23:10;101533.50;;;20.10;55.99
69749;BME280;57019;52.354;6.584;2022-10-26T12:25:37;101540.41;;;20.11;56.11
69749;BME280;57019;52.354;6.584;2022-10-26T12:28:02;101533.97;;;20.14;56.21
69749;BME280;57019;52.354;6.584;2022-10-26T12:30:33;101540.06;;;20.14;55.98
69749;BME280;57019;52.354;6.584;2022-10-26T12:33:28;101542.69;;;20.14;56.08
69749;BME280;57019;52.354;6.584;2022-10-26T12:35:53;101540.06;;;20.14;55.96
69749;BME280;57019;52.354;6.584;2022-10-26T12:40:48;101543.31;;;20.16;57.06
69749;BME280;57019;52.354;6.584;2022-10-26T12:43:37;101551.00;;;20.26;57.01
69749;BME280;57019;52.354;6.584;2022-10-26T12:48:50;101569.22;;;20.53;56.75
69749;BME280;57019;52.354;6.584;2022-10-26T12:54:01;101566.53;;;20.86;55.88
69749;BME280;57019;52.354;6.584;2022-10-26T12:56:43;101564.88;;;20.93;55.76
69749;BME280;57019;52.354;6.584;2022-10-26T12:59:25;101569.78;;;20.96;55.99
69749;BME280;57019;52.354;6.584;2022-10-26T13:05:05;101581.06;;;20.96;55.94
69749;BME280;57019;52.354;6.584;2022-10-26T13:08:05;101574.69;;;20.99;56.01
69749;BME280;57019;52.354;6.584;2022-10-26T13:10:31;101573.06;;;20.98;55.85
69749;BME280;57019;52.354;6.584;2022-10-26T13:12:59;101583.56;;;20.98;56.11
69749;BME280;57019;52.354;6.584;2022-10-26T13:15:28;101582.25;;;20.94;56.27
69749;BME280;57019;52.354;6.584;2022-10-26T13:17:58;101584.22;;;20.92;56.25
69749;BME280;57019;52.354;6.584;2022-10-26T13:20:26;101571.09;;;20.92;56.05
69749;BME280;57019;52.354;6.584;2022-10-26T13:22:52;101573.72;;;20.92;56.14
69749;BME280;57019;52.354;6.584;2022-10-26T13:25:29;101572.75;;;20.93;56.02
69749;BME280;57019;52.354;6.584;2022-10-26T13:33:46;101565.88;;;20.83;56.47
69749;BME280;57019;52.354;6.584;2022-10-26T13:36:35;101584.06;;;20.85;56.38
69749;BME280;57019;52.354;6.584;2022-10-26T13:42:25;101580.16;;;20.81;56.49
69749;BME280;57019;52.354;6.584;2022-10-26T13:45:05;101585.56;;;20.79;56.39
69749;BME280;57019;52.354;6.584;2022-10-26T13:47:44;101591.50;;;20.73;56.48
69749;BME280;57019;52.354;6.584;2022-10-26T13:50:18;101595.09;;;20.72;56.57
69749;BME280;57019;52.354;6.584;2022-10-26T13:52:49;101597.72;;;20.72;56.89
69749;BME280;57019;52.354;6.584;2022-10-26T13:55:30;101595.09;;;20.72;56.47
69749;BME280;57019;52.354;6.584;2022-10-26T13:58:11;101596.09;;;20.71;56.85
69749;BME280;57019;52.354;6.584;2022-10-26T14:00:38;101595.44;;;20.69;56.67
69749;BME280;57019;52.354;6.584;2022-10-26T14:03:18;101597.38;;;20.67;56.81
69749;BME280;57019;52.354;6.584;2022-10-26T14:05:47;101597.72;;;20.64;56.77
69749;BME280;57019;52.354;6.584;2022-10-26T14:08:16;101595.25;;;20.62;56.97
69749;BME280;57019;52.354;6.584;2022-10-26T14:10:45;101592.81;;;20.61;57.02
69749;BME280;57019;52.354;6.584;2022-10-26T14:13:14;101599.19;;;20.58;57.07
69749;BME280;57019;52.354;6.584;2022-10-26T14:15:42;101594.75;;;20.59;57.24
69749;BME280;57019;52.354;6.584;2022-10-26T14:18:17;101592.31;;;20.57;57.11
69749;BME280;57019;52.354;6.584;2022-10-26T14:26:19;101608.22;;;20.64;57.34
69749;BME280;57019;52.354;6.584;2022-10-26T14:28:48;101604.28;;;20.68;57.26
69749;BME280;57019;52.354;6.584;2022-10-26T14:31:22;101597.38;;;20.67;57.52
69749;BME280;57019;52.354;6.584;2022-10-26T14:33:48;101615.59;;;20.68;57.47
69749;BME280;57019;52.354;6.584;2022-10-26T14:36:14;101618.56;;;20.74;57.29
69749;BME280;57019;52.354;6.584;2022-10-26T14:38:44;101625.63;;;20.73;57.30
69749;BME280;57019;52.354;6.584;2022-10-26T14:41:13;101622.16;;;20.73;57.45
69749;BME280;57019;52.354;6.584;2022-10-26T14:43:40;101629.84;;;20.74;57.20
69749;BME280;57019;52.354;6.584;2022-10-26T14:46:05;101633.50;;;20.73;57.56
69749;BME280;57019;52.354;6.584;2022-10-26T14:48:35;101634.63;;;20.71;57.59
69749;BME280;57019;52.354;6.584;2022-10-26T14:51:10;101641.50;;;20.72;57.74
69749;BME280;57019;52.354;6.584;2022-10-26T14:53:40;101644.78;;;20.74;57.62
69749;BME280;57019;52.354;6.584;2022-10-26T14:56:38;101648.22;;;20.74;57.63
69749;BME280;57019;52.354;6.584;2022-10-26T15:01:57;101650.84;;;20.74;57.59
69749;BME280;57019;52.354;6.584;2022-10-26T15:04:29;101647.25;;;20.75;57.91
69749;BME280;57019;52.354;6.584;2022-10-26T15:09:42;101671.38;;;20.71;58.05